Saint Joseph, MO (64501)

10:33 PM CDT on July 29, 2016 (GMT -0500)
Horn Heights | | Change Station

Elev 951 ft 39.74 °N, 94.84 °W | Updated 34 seconds ago

Clear
Clear
71.8 °F
Feels Like 74 °F
N
0.0
Wind Variable Wind from North
Gusts 3.0 mph

Today
High -- | Low -- °F
--% Chance of Precip.
Yesterday
High -- | Low -- °F
Precip. -- in
Pressure 29.99 in
Visibility 10.0 miles
Clouds Clear
Heat Index 74 °F
Dew Point 63 °F
Humidity 74%
Rainfall 0.00 in
Snow Depth Not available.
6:16 AM 8:35 PM
Waning Crescent, 16% visible
METAR KSTJ 300253Z AUTO 00000KT 10SM CLR 20/17 A3000 RMK AO2 SLP153 T02000167 53010
Pressure 29.99 in
Visibility 10.0 miles
Clouds Clear
Heat Index 74 °F
Dew Point 63 °F
Humidity 74%
Rainfall 0.00 in
Snow Depth Not available.
6:16 AM 8:35 PM
Waning Crescent, 16% visible
METAR KSTJ 300253Z AUTO 00000KT 10SM CLR 20/17 A3000 RMK AO2 SLP153 T02000167 53010

10-Day Weather Forecast

Almanac

Astronomy

Jul. 29, 2016 Rise Set
Actual Time
Civil Twilight
Nautical Twilight
Astronomical Twilight
Moon
Length of Visible Light
Length of Day
Tomorrow will be .
, % of the Moon is Illuminated

Today's Extremes

State Highs State Lows

Community

WunderPhotos

Upload Photos

1,928,500 photos uploaded!

WunderBlog® & News

Nearby

Air Quality

  Air Quality AQ Index Pollutant
Not available.

Snow Depth

Station Depth Elevation

Earthquake Activity

City Distance Mag. Time & Date
Minimum magnitude displayed is 2.5.

Coastal Water Temperatures

Place Temperature

Stations

Nearby Weather Stations

Station Location Temp. Windchill Dew Point Humidity Wind Precip. Elev Updated Type
                   

Watches & Warnings

There are currently no watches in effect.